sensor_id;sensor_type;location;lat;lon;timestamp;pressure;altitude;pressure_sealevel;temperature;humidity
61128;BME280;47013;42.664;23.242;2022-10-16T00:01:20;94658.41;;;7.69;91.64
61128;BME280;47013;42.664;23.242;2022-10-16T00:03:46;94665.63;;;7.62;91.86
61128;BME280;47013;42.664;23.242;2022-10-16T00:06:13;94670.25;;;7.61;91.80
61128;BME280;47013;42.664;23.242;2022-10-16T00:08:39;94678.31;;;7.58;92.58
61128;BME280;47013;42.664;23.242;2022-10-16T00:11:14;94682.84;;;7.50;93.70
61128;BME280;47013;42.664;23.242;2022-10-16T00:13:41;94681.28;;;7.49;94.54
61128;BME280;47013;42.664;23.242;2022-10-16T00:16:08;94682.94;;;7.57;94.28
61128;BME280;47013;42.664;23.242;2022-10-16T00:18:34;94682.97;;;7.61;92.76
61128;BME280;47013;42.664;23.242;2022-10-16T00:21:13;94674.84;;;7.57;91.75
61128;BME280;47013;42.664;23.242;2022-10-16T00:23:39;94678.22;;;7.51;91.59
61128;BME280;47013;42.664;23.242;2022-10-16T00:26:08;94680.50;;;7.49;92.08
61128;BME280;47013;42.664;23.242;2022-10-16T00:28:35;94682.00;;;7.43;92.90
61128;BME280;47013;42.664;23.242;2022-10-16T00:31:11;94682.03;;;7.46;93.43
61128;BME280;47013;42.664;23.242;2022-10-16T00:33:37;94687.03;;;7.44;93.67
61128;BME280;47013;42.664;23.242;2022-10-16T00:36:04;94688.66;;;7.52;93.25
61128;BME280;47013;42.664;23.242;2022-10-16T00:38:30;94687.47;;;7.50;92.40
61128;BME280;47013;42.664;23.242;2022-10-16T00:40:56;94691.56;;;7.40;92.39
61128;BME280;47013;42.664;23.242;2022-10-16T00:43:41;94693.06;;;7.34;93.68
61128;BME280;47013;42.664;23.242;2022-10-16T00:46:19;94687.63;;;7.30;94.04
61128;BME280;47013;42.664;23.242;2022-10-16T00:49:10;94684.16;;;7.30;94.65
61128;BME280;47013;42.664;23.242;2022-10-16T00:51:45;94684.06;;;7.26;94.56
61128;BME280;47013;42.664;23.242;2022-10-16T00:54:15;94679.41;;;7.23;94.92
61128;BME280;47013;42.664;23.242;2022-10-16T00:56:43;94672.44;;;7.19;95.03
61128;BME280;47013;42.664;23.242;2022-10-16T00:59:37;94678.13;;;7.14;95.71
61128;BME280;47013;42.664;23.242;2022-10-16T01:02:05;94684.25;;;7.10;95.79
61128;BME280;47013;42.664;23.242;2022-10-16T01:04:35;94685.41;;;7.09;95.77
61128;BME280;47013;42.664;23.242;2022-10-16T01:12:24;94690.84;;;7.13;95.26
61128;BME280;47013;42.664;23.242;2022-10-16T01:18:09;94687.22;;;7.02;96.00
61128;BME280;47013;42.664;23.242;2022-10-16T01:20:45;94687.66;;;7.04;96.05
61128;BME280;47013;42.664;23.242;2022-10-16T01:28:29;94674.16;;;7.04;96.00
61128;BME280;47013;42.664;23.242;2022-10-16T01:31:00;94668.34;;;7.02;95.30
61128;BME280;47013;42.664;23.242;2022-10-16T01:34:02;94674.09;;;7.00;94.47
61128;BME280;47013;42.664;23.242;2022-10-16T01:36:55;94677.97;;;7.03;94.82
61128;BME280;47013;42.664;23.242;2022-10-16T01:39:24;94680.53;;;6.92;96.19
61128;BME280;47013;42.664;23.242;2022-10-16T01:42:19;94689.50;;;7.00;96.41
61128;BME280;47013;42.664;23.242;2022-10-16T01:44:47;94680.34;;;7.04;96.08
61128;BME280;47013;42.664;23.242;2022-10-16T01:47:14;94690.00;;;7.09;94.98
61128;BME280;47013;42.664;23.242;2022-10-16T01:49:41;94682.91;;;6.97;94.49
61128;BME280;47013;42.664;23.242;2022-10-16T01:52:11;94690.22;;;6.97;94.60
61128;BME280;47013;42.664;23.242;2022-10-16T01:54:41;94689.09;;;6.98;95.53
61128;BME280;47013;42.664;23.242;2022-10-16T01:57:07;94692.91;;;6.97;95.29
61128;BME280;47013;42.664;23.242;2022-10-16T01:59:38;94694.69;;;6.86;96.06
61128;BME280;47013;42.664;23.242;2022-10-16T02:02:07;94693.38;;;6.76;97.06
61128;BME280;47013;42.664;23.242;2022-10-16T02:04:40;94691.13;;;6.78;97.23
61128;BME280;47013;42.664;23.242;2022-10-16T02:07:07;94692.66;;;6.79;97.12
61128;BME280;47013;42.664;23.242;2022-10-16T02:09:34;94700.69;;;6.75;96.63
61128;BME280;47013;42.664;23.242;2022-10-16T02:12:11;94694.88;;;6.73;96.32
61128;BME280;47013;42.664;23.242;2022-10-16T02:14:39;94710.28;;;6.73;96.43
61128;BME280;47013;42.664;23.242;2022-10-16T02:17:15;94710.69;;;6.75;96.57
61128;BME280;47013;42.664;23.242;2022-10-16T02:19:41;94715.72;;;6.76;96.26
61128;BME280;47013;42.664;23.242;2022-10-16T02:22:10;94713.00;;;6.76;96.08
61128;BME280;47013;42.664;23.242;2022-10-16T02:27:26;94723.50;;;6.82;94.94
61128;BME280;47013;42.664;23.242;2022-10-16T02:30:00;94727.22;;;6.73;95.31
61128;BME280;47013;42.664;23.242;2022-10-16T02:32:30;94729.91;;;6.73;95.51
61128;BME280;47013;42.664;23.242;2022-10-16T02:34:58;94715.63;;;6.69;96.42
61128;BME280;47013;42.664;23.242;2022-10-16T02:37:25;94713.34;;;6.71;96.67
61128;BME280;47013;42.664;23.242;2022-10-16T02:39:51;94718.31;;;6.69;95.62
61128;BME280;47013;42.664;23.242;2022-10-16T02:42:18;94722.88;;;6.65;95.82
61128;BME280;47013;42.664;23.242;2022-10-16T02:44:43;94717.53;;;6.69;96.24
61128;BME280;47013;42.664;23.242;2022-10-16T02:47:09;94733.22;;;6.63;95.62
61128;BME280;47013;42.664;23.242;2022-10-16T02:49:34;94729.31;;;6.61;95.82
61128;BME280;47013;42.664;23.242;2022-10-16T02:52:00;94739.75;;;6.62;96.05
61128;BME280;47013;42.664;23.242;2022-10-16T02:54:25;94734.72;;;6.61;95.44
61128;BME280;47013;42.664;23.242;2022-10-16T02:56:50;94737.00;;;6.59;95.69
61128;BME280;47013;42.664;23.242;2022-10-16T02:59:17;94735.50;;;6.61;95.27
61128;BME280;47013;42.664;23.242;2022-10-16T03:01:42;94731.72;;;6.66;95.04
61128;BME280;47013;42.664;23.242;2022-10-16T03:04:08;94736.41;;;6.69;94.10
61128;BME280;47013;42.664;23.242;2022-10-16T03:06:34;94741.38;;;6.67;93.94
61128;BME280;47013;42.664;23.242;2022-10-16T03:08:59;94732.44;;;6.63;93.77
61128;BME280;47013;42.664;23.242;2022-10-16T03:11:25;94733.09;;;6.56;94.32
61128;BME280;47013;42.664;23.242;2022-10-16T03:13:51;94735.81;;;6.56;94.72
61128;BME280;47013;42.664;23.242;2022-10-16T03:16:16;94734.66;;;6.57;94.52
61128;BME280;47013;42.664;23.242;2022-10-16T03:18:42;94737.00;;;6.59;94.05
61128;BME280;47013;42.664;23.242;2022-10-16T03:21:07;94741.59;;;6.58;94.02
61128;BME280;47013;42.664;23.242;2022-10-16T03:23:32;94737.78;;;6.59;93.49
61128;BME280;47013;42.664;23.242;2022-10-16T03:25:58;94747.41;;;6.60;93.37
61128;BME280;47013;42.664;23.242;2022-10-16T03:28:24;94744.97;;;6.52;93.10
61128;BME280;47013;42.664;23.242;2022-10-16T03:30:49;94754.84;;;6.44;93.60
61128;BME280;47013;42.664;23.242;2022-10-16T03:33:14;94757.06;;;6.38;93.85
61128;BME280;47013;42.664;23.242;2022-10-16T03:35:40;94754.28;;;6.35;94.04
61128;BME280;47013;42.664;23.242;2022-10-16T03:38:05;94757.75;;;6.35;94.71
61128;BME280;47013;42.664;23.242;2022-10-16T03:40:31;94753.94;;;6.36;94.33
61128;BME280;47013;42.664;23.242;2022-10-16T03:42:57;94751.94;;;6.33;94.03
61128;BME280;47013;42.664;23.242;2022-10-16T03:45:23;94744.59;;;6.30;94.14
61128;BME280;47013;42.664;23.242;2022-10-16T03:47:49;94748.06;;;6.31;94.36
61128;BME280;47013;42.664;23.242;2022-10-16T03:50:14;94752.16;;;6.25;94.91
61128;BME280;47013;42.664;23.242;2022-10-16T03:52:40;94749.00;;;6.19;95.02
61128;BME280;47013;42.664;23.242;2022-10-16T03:55:06;94747.75;;;6.13;95.08
61128;BME280;47013;42.664;23.242;2022-10-16T03:57:31;94750.88;;;6.15;95.50
61128;BME280;47013;42.664;23.242;2022-10-16T03:59:57;94741.66;;;6.16;95.82
61128;BME280;47013;42.664;23.242;2022-10-16T04:02:22;94745.13;;;6.16;95.99
61128;BME280;47013;42.664;23.242;2022-10-16T04:04:48;94745.41;;;6.11;96.75
61128;BME280;47013;42.664;23.242;2022-10-16T04:07:13;94742.69;;;6.11;97.30
61128;BME280;47013;42.664;23.242;2022-10-16T04:09:38;94740.88;;;6.15;96.75
61128;BME280;47013;42.664;23.242;2022-10-16T04:12:04;94740.00;;;6.11;96.04
61128;BME280;47013;42.664;23.242;2022-10-16T04:14:29;94735.53;;;6.19;95.76
61128;BME280;47013;42.664;23.242;2022-10-16T04:16:55;94746.78;;;6.25;95.51
61128;BME280;47013;42.664;23.242;2022-10-16T04:19:20;94746.00;;;6.24;95.05
61128;BME280;47013;42.664;23.242;2022-10-16T04:21:45;94751.41;;;6.24;94.23
61128;BME280;47013;42.664;23.242;2022-10-16T04:24:11;94748.22;;;6.18;93.70
61128;BME280;47013;42.664;23.242;2022-10-16T04:26:36;94743.19;;;6.17;94.47
61128;BME280;47013;42.664;23.242;2022-10-16T04:29:02;94754.03;;;6.20;94.38
61128;BME280;47013;42.664;23.242;2022-10-16T04:31:27;94749.44;;;6.21;94.16
61128;BME280;47013;42.664;23.242;2022-10-16T04:33:53;94747.31;;;6.11;94.67
61128;BME280;47013;42.664;23.242;2022-10-16T04:36:18;94745.34;;;6.08;94.75
61128;BME280;47013;42.664;23.242;2022-10-16T04:38:43;94750.34;;;6.09;95.24
61128;BME280;47013;42.664;23.242;2022-10-16T04:41:09;94753.91;;;6.13;94.70
61128;BME280;47013;42.664;23.242;2022-10-16T04:43:34;94760.50;;;6.16;94.30
61128;BME280;47013;42.664;23.242;2022-10-16T04:46:00;94761.34;;;6.20;94.03
61128;BME280;47013;42.664;23.242;2022-10-16T04:48:26;94766.25;;;6.14;93.66
61128;BME280;47013;42.664;23.242;2022-10-16T04:50:51;94770.13;;;6.17;94.00
61128;BME280;47013;42.664;23.242;2022-10-16T04:53:16;94769.63;;;6.11;93.92
61128;BME280;47013;42.664;23.242;2022-10-16T04:55:42;94774.78;;;6.20;94.05
61128;BME280;47013;42.664;23.242;2022-10-16T04:58:08;94778.06;;;6.10;93.85
61128;BME280;47013;42.664;23.242;2022-10-16T05:00:34;94786.13;;;6.10;94.30
61128;BME280;47013;42.664;23.242;2022-10-16T05:02:59;94783.88;;;6.12;94.45
61128;BME280;47013;42.664;23.242;2022-10-16T05:05:26;94781.72;;;6.21;94.43
61128;BME280;47013;42.664;23.242;2022-10-16T05:07:51;94790.75;;;6.29;94.43
61128;BME280;47013;42.664;23.242;2022-10-16T05:10:17;94782.72;;;6.32;94.21
61128;BME280;47013;42.664;23.242;2022-10-16T05:12:43;94788.16;;;6.36;94.19
61128;BME280;47013;42.664;23.242;2022-10-16T05:15:09;94796.03;;;6.44;94.27
61128;BME280;47013;42.664;23.242;2022-10-16T05:17:34;94790.41;;;6.53;94.06
61128;BME280;47013;42.664;23.242;2022-10-16T05:19:59;94791.66;;;6.59;93.95
61128;BME280;47013;42.664;23.242;2022-10-16T05:22:25;94796.47;;;6.69;93.96
61128;BME280;47013;42.664;23.242;2022-10-16T05:24:50;94800.84;;;6.77;93.98
61128;BME280;47013;42.664;23.242;2022-10-16T05:27:16;94801.31;;;6.83;93.45
61128;BME280;47013;42.664;23.242;2022-10-16T05:29:47;94803.03;;;6.95;93.49
61128;BME280;47013;42.664;23.242;2022-10-16T05:32:14;94792.06;;;7.07;93.45
61128;BME280;47013;42.664;23.242;2022-10-16T05:34:41;94793.72;;;7.15;93.92
61128;BME280;47013;42.664;23.242;2022-10-16T05:37:06;94793.06;;;7.22;94.77
61128;BME280;47013;42.664;23.242;2022-10-16T05:39:31;94796.22;;;7.27;94.23
61128;BME280;47013;42.664;23.242;2022-10-16T05:41:57;94801.78;;;7.38;94.09
61128;BME280;47013;42.664;23.242;2022-10-16T05:44:22;94800.00;;;7.49;93.20
61128;BME280;47013;42.664;23.242;2022-10-16T05:46:48;94813.19;;;7.54;93.31
61128;BME280;47013;42.664;23.242;2022-10-16T05:49:13;94809.41;;;7.59;93.18
61128;BME280;47013;42.664;23.242;2022-10-16T05:51:39;94814.81;;;7.59;92.47
61128;BME280;47013;42.664;23.242;2022-10-16T05:54:04;94813.34;;;7.65;92.08
61128;BME280;47013;42.664;23.242;2022-10-16T05:56:30;94827.19;;;7.63;91.35
61128;BME280;47013;42.664;23.242;2022-10-16T05:58:55;94817.50;;;7.59;91.66
61128;BME280;47013;42.664;23.242;2022-10-16T06:01:21;94825.75;;;7.69;92.62
61128;BME280;47013;42.664;23.242;2022-10-16T06:03:50;94828.25;;;7.82;91.34
61128;BME280;47013;42.664;23.242;2022-10-16T06:06:26;94839.84;;;7.86;91.86
61128;BME280;47013;42.664;23.242;2022-10-16T06:08:54;94840.44;;;8.02;91.92
61128;BME280;47013;42.664;23.242;2022-10-16T06:11:22;94844.09;;;8.17;91.24
61128;BME280;47013;42.664;23.242;2022-10-16T06:13:52;94835.78;;;8.33;89.52
61128;BME280;47013;42.664;23.242;2022-10-16T06:16:18;94844.13;;;8.47;89.44
61128;BME280;47013;42.664;23.242;2022-10-16T06:18:43;94850.44;;;8.62;89.64
61128;BME280;47013;42.664;23.242;2022-10-16T06:21:12;94847.81;;;8.69;87.93
61128;BME280;47013;42.664;23.242;2022-10-16T06:23:38;94854.13;;;8.83;87.55
61128;BME280;47013;42.664;23.242;2022-10-16T06:26:12;94851.53;;;8.94;86.49
61128;BME280;47013;42.664;23.242;2022-10-16T06:28:38;94858.25;;;9.11;85.93
61128;BME280;47013;42.664;23.242;2022-10-16T06:31:05;94848.34;;;9.26;89.03
61128;BME280;47013;42.664;23.242;2022-10-16T06:33:31;94851.41;;;10.45;100.00
61128;BME280;47013;42.664;23.242;2022-10-16T06:36:14;94860.88;;;11.08;79.46
61128;BME280;47013;42.664;23.242;2022-10-16T06:38:41;94859.72;;;11.12;75.19
61128;BME280;47013;42.664;23.242;2022-10-16T06:41:07;94862.38;;;10.87;74.29
61128;BME280;47013;42.664;23.242;2022-10-16T06:43:33;94870.44;;;10.66;75.43
61128;BME280;47013;42.664;23.242;2022-10-16T06:46:01;94873.53;;;10.64;75.67
61128;BME280;47013;42.664;23.242;2022-10-16T06:48:27;94873.16;;;10.66;80.02
61128;BME280;47013;42.664;23.242;2022-10-16T06:51:13;94868.59;;;12.09;100.00
61128;BME280;47013;42.664;23.242;2022-10-16T06:53:41;94879.44;;;12.23;73.99
61128;BME280;47013;42.664;23.242;2022-10-16T06:58:40;94886.88;;;11.98;69.62
61128;BME280;47013;42.664;23.242;2022-10-16T07:01:06;94896.19;;;11.68;70.70
61128;BME280;47013;42.664;23.242;2022-10-16T07:03:32;94894.66;;;11.35;71.62
61128;BME280;47013;42.664;23.242;2022-10-16T07:06:01;94895.03;;;11.44;75.37
61128;BME280;47013;42.664;23.242;2022-10-16T07:08:27;94894.28;;;11.47;71.55
61128;BME280;47013;42.664;23.242;2022-10-16T07:11:00;94895.81;;;11.48;71.90
61128;BME280;47013;42.664;23.242;2022-10-16T07:13:25;94900.06;;;11.57;71.60
61128;BME280;47013;42.664;23.242;2022-10-16T07:15:51;94902.03;;;11.74;70.93
61128;BME280;47013;42.664;23.242;2022-10-16T07:18:16;94905.91;;;11.62;70.38
61128;BME280;47013;42.664;23.242;2022-10-16T07:20:42;94903.19;;;11.55;71.25
61128;BME280;47013;42.664;23.242;2022-10-16T07:23:07;94902.44;;;11.72;71.04
61128;BME280;47013;42.664;23.242;2022-10-16T07:25:32;94907.09;;;12.00;70.47
61128;BME280;47013;42.664;23.242;2022-10-16T07:27:58;94902.44;;;12.01;68.94
61128;BME280;47013;42.664;23.242;2022-10-16T07:30:23;94906.28;;;12.10;68.15
61128;BME280;47013;42.664;23.242;2022-10-16T07:32:48;94907.00;;;12.32;82.17
61128;BME280;47013;42.664;23.242;2022-10-16T07:35:14;94908.09;;;12.56;68.13
61128;BME280;47013;42.664;23.242;2022-10-16T07:37:44;94901.91;;;12.56;65.97
61128;BME280;47013;42.664;23.242;2022-10-16T07:40:10;94904.63;;;12.56;65.91
61128;BME280;47013;42.664;23.242;2022-10-16T07:42:36;94907.25;;;12.77;65.44
61128;BME280;47013;42.664;23.242;2022-10-16T07:45:01;94901.03;;;12.80;65.49
61128;BME280;47013;42.664;23.242;2022-10-16T07:47:26;94905.94;;;13.07;64.85
61128;BME280;47013;42.664;23.242;2022-10-16T07:49:52;94912.50;;;13.16;63.48
61128;BME280;47013;42.664;23.242;2022-10-16T07:52:17;94912.13;;;13.14;63.49
61128;BME280;47013;42.664;23.242;2022-10-16T07:54:42;94919.09;;;13.30;62.95
61128;BME280;47013;42.664;23.242;2022-10-16T07:57:08;94916.13;;;13.62;63.20
61128;BME280;47013;42.664;23.242;2022-10-16T07:59:33;94919.44;;;13.87;61.89
61128;BME280;47013;42.664;23.242;2022-10-16T08:01:58;94918.50;;;14.08;60.63
61128;BME280;47013;42.664;23.242;2022-10-16T08:04:24;94918.53;;;14.42;60.08
61128;BME280;47013;42.664;23.242;2022-10-16T08:06:49;94922.88;;;14.36;58.48
61128;BME280;47013;42.664;23.242;2022-10-16T08:09:15;94915.66;;;14.56;58.25
61128;BME280;47013;42.664;23.242;2022-10-16T08:11:40;94918.28;;;14.67;57.85
61128;BME280;47013;42.664;23.242;2022-10-16T08:14:05;94906.59;;;15.00;57.68
61128;BME280;47013;42.664;23.242;2022-10-16T08:16:31;94908.03;;;15.35;56.57
61128;BME280;47013;42.664;23.242;2022-10-16T08:18:56;94913.91;;;15.34;55.95
61128;BME280;47013;42.664;23.242;2022-10-16T08:21:22;94917.13;;;15.56;55.29
61128;BME280;47013;42.664;23.242;2022-10-16T08:23:49;94913.38;;;15.73;54.73
61128;BME280;47013;42.664;23.242;2022-10-16T08:26:15;94917.06;;;15.86;53.30
61128;BME280;47013;42.664;23.242;2022-10-16T08:28:40;94915.97;;;16.50;58.29
61128;BME280;47013;42.664;23.242;2022-10-16T08:33:35;94908.84;;;16.96;51.25
61128;BME280;47013;42.664;23.242;2022-10-16T08:36:02;94902.53;;;16.99;49.99
61128;BME280;47013;42.664;23.242;2022-10-16T08:38:28;94897.94;;;17.13;49.39
61128;BME280;47013;42.664;23.242;2022-10-16T08:41:00;94909.13;;;17.02;49.54
61128;BME280;47013;42.664;23.242;2022-10-16T08:43:54;94902.78;;;17.05;49.46
61128;BME280;47013;42.664;23.242;2022-10-16T08:46:24;94899.28;;;17.04;48.92
61128;BME280;47013;42.664;23.242;2022-10-16T08:48:57;94908.16;;;16.72;49.08
61128;BME280;47013;42.664;23.242;2022-10-16T08:53:54;94911.44;;;17.23;49.27
61128;BME280;47013;42.664;23.242;2022-10-16T08:56:20;94914.38;;;17.32;48.16
61128;BME280;47013;42.664;23.242;2022-10-16T08:58:47;94914.19;;;17.39;48.02
61128;BME280;47013;42.664;23.242;2022-10-16T09:01:15;94917.28;;;17.42;47.71
61128;BME280;47013;42.664;23.242;2022-10-16T09:18:05;94910.19;;;16.02;46.56
61128;BME280;47013;42.664;23.242;2022-10-16T09:23:16;94902.69;;;15.82;45.86
61128;BME280;47013;42.664;23.242;2022-10-16T09:25:44;94901.81;;;15.62;46.34
61128;BME280;47013;42.664;23.242;2022-10-16T09:28:11;94907.59;;;15.41;47.07
61128;BME280;47013;42.664;23.242;2022-10-16T09:30:37;94914.81;;;15.27;47.24
61128;BME280;47013;42.664;23.242;2022-10-16T09:33:04;94907.06;;;15.22;46.73
61128;BME280;47013;42.664;23.242;2022-10-16T09:35:40;94912.69;;;15.39;47.14
61128;BME280;47013;42.664;23.242;2022-10-16T09:38:07;94915.09;;;15.63;46.53
61128;BME280;47013;42.664;23.242;2022-10-16T09:40:35;94911.06;;;15.72;46.73
61128;BME280;47013;42.664;23.242;2022-10-16T09:43:26;94911.91;;;15.92;44.45
61128;BME280;47013;42.664;23.242;2022-10-16T09:46:21;94910.41;;;16.34;44.32
61128;BME280;47013;42.664;23.242;2022-10-16T09:48:49;94906.63;;;16.48;42.35
61128;BME280;47013;42.664;23.242;2022-10-16T09:51:24;94896.34;;;16.56;43.54
61128;BME280;47013;42.664;23.242;2022-10-16T09:53:55;94889.75;;;16.73;41.72
61128;BME280;47013;42.664;23.242;2022-10-16T09:56:24;94894.84;;;17.10;41.44
61128;BME280;47013;42.664;23.242;2022-10-16T09:58:58;94890.69;;;17.22;40.30
61128;BME280;47013;42.664;23.242;2022-10-16T10:01:35;94884.97;;;17.33;40.22
61128;BME280;47013;42.664;23.242;2022-10-16T10:04:03;94888.34;;;17.57;39.09
61128;BME280;47013;42.664;23.242;2022-10-16T10:06:32;94884.50;;;17.71;38.79
61128;BME280;47013;42.664;23.242;2022-10-16T10:09:00;94878.75;;;18.30;37.99
61128;BME280;47013;42.664;23.242;2022-10-16T10:11:40;94888.41;;;18.51;37.34
61128;BME280;47013;42.664;23.242;2022-10-16T10:14:15;94881.41;;;18.63;36.53
61128;BME280;47013;42.664;23.242;2022-10-16T10:16:41;94884.84;;;19.08;36.29
61128;BME280;47013;42.664;23.242;2022-10-16T10:19:18;94883.47;;;19.42;34.28
61128;BME280;47013;42.664;23.242;2022-10-16T10:21:45;94892.72;;;19.86;33.87
61128;BME280;47013;42.664;23.242;2022-10-16T10:24:15;94884.22;;;20.06;33.15
61128;BME280;47013;42.664;23.242;2022-10-16T10:27:06;94880.06;;;20.36;32.85
61128;BME280;47013;42.664;23.242;2022-10-16T10:30:41;94877.50;;;20.76;31.85
61128;BME280;47013;42.664;23.242;2022-10-16T10:35:31;94875.44;;;20.46;31.75
61128;BME280;47013;42.664;23.242;2022-10-16T10:38:34;94861.69;;;20.33;31.74
61128;BME280;47013;42.664;23.242;2022-10-16T10:41:15;94872.97;;;20.60;32.15
61128;BME280;47013;42.664;23.242;2022-10-16T10:46:41;94859.50;;;20.84;30.70
61128;BME280;47013;42.664;23.242;2022-10-16T10:57:46;94846.63;;;21.34;30.34
61128;BME280;47013;42.664;23.242;2022-10-16T11:00:37;94839.25;;;21.71;29.70
61128;BME280;47013;42.664;23.242;2022-10-16T11:05:43;94835.16;;;21.36;29.42
61128;BME280;47013;42.664;23.242;2022-10-16T11:11:00;94836.22;;;21.78;29.36
61128;BME280;47013;42.664;23.242;2022-10-16T11:16:03;94834.47;;;22.21;29.31
61128;BME280;47013;42.664;23.242;2022-10-16T11:18:45;94843.47;;;21.94;27.15
61128;BME280;47013;42.664;23.242;2022-10-16T11:21:16;94831.38;;;22.01;28.31
61128;BME280;47013;42.664;23.242;2022-10-16T11:23:59;94825.13;;;22.28;27.51
61128;BME280;47013;42.664;23.242;2022-10-16T11:26:28;94822.03;;;22.17;27.13
61128;BME280;47013;42.664;23.242;2022-10-16T11:28:58;94823.97;;;21.98;27.90
61128;BME280;47013;42.664;23.242;2022-10-16T11:31:34;94827.56;;;21.58;28.04
61128;BME280;47013;42.664;23.242;2022-10-16T11:34:07;94827.97;;;21.97;28.17
61128;BME280;47013;42.664;23.242;2022-10-16T11:36:57;94822.03;;;22.35;26.96
61128;BME280;47013;42.664;23.242;2022-10-16T11:39:29;94826.38;;;22.54;26.27
61128;BME280;47013;42.664;23.242;2022-10-16T11:42:02;94820.81;;;22.82;25.98
61128;BME280;47013;42.664;23.242;2022-10-16T11:49:43;94827.91;;;23.34;25.94
61128;BME280;47013;42.664;23.242;2022-10-16T11:52:50;94827.44;;;23.36;24.92
61128;BME280;47013;42.664;23.242;2022-10-16T11:55:21;94821.75;;;23.39;23.92
61128;BME280;47013;42.664;23.242;2022-10-16T11:57:54;94829.09;;;22.63;25.70
61128;BME280;47013;42.664;23.242;2022-10-16T12:00:25;94826.91;;;22.03;26.96
61128;BME280;47013;42.664;23.242;2022-10-16T12:03:08;94830.03;;;22.15;26.35
61128;BME280;47013;42.664;23.242;2022-10-16T12:08:28;94823.41;;;22.40;25.92
61128;BME280;47013;42.664;23.242;2022-10-16T12:10:53;94809.63;;;22.67;24.95
61128;BME280;47013;42.664;23.242;2022-10-16T12:18:30;94819.94;;;23.27;25.27
61128;BME280;47013;42.664;23.242;2022-10-16T12:20:57;94816.47;;;23.08;25.43
61128;BME280;47013;42.664;23.242;2022-10-16T12:23:54;94821.75;;;22.42;25.71
61128;BME280;47013;42.664;23.242;2022-10-16T12:26:32;94821.44;;;22.31;26.70
61128;BME280;47013;42.664;23.242;2022-10-16T12:31:53;94822.78;;;21.49;26.24
61128;BME280;47013;42.664;23.242;2022-10-16T12:34:39;94821.88;;;21.53;26.73
61128;BME280;47013;42.664;23.242;2022-10-16T12:37:14;94816.50;;;21.49;28.88
61128;BME280;47013;42.664;23.242;2022-10-16T12:39:46;94823.00;;;21.02;29.56
61128;BME280;47013;42.664;23.242;2022-10-16T12:42:34;94825.44;;;20.35;30.33
61128;BME280;47013;42.664;23.242;2022-10-16T12:45:00;94822.06;;;20.18;31.27
61128;BME280;47013;42.664;23.242;2022-10-16T12:49:58;94819.03;;;19.56;32.66
61128;BME280;47013;42.664;23.242;2022-10-16T12:52:35;94825.94;;;19.35;32.87
61128;BME280;47013;42.664;23.242;2022-10-16T12:55:02;94827.09;;;18.83;33.47
61128;BME280;47013;42.664;23.242;2022-10-16T13:08:37;94838.97;;;17.57;36.22
61128;BME280;47013;42.664;23.242;2022-10-16T13:24:49;94838.88;;;16.92;36.88
61128;BME280;47013;42.664;23.242;2022-10-16T13:29:53;94833.66;;;16.81;37.70
61128;BME280;47013;42.664;23.242;2022-10-16T13:32:21;94836.41;;;16.81;38.18
61128;BME280;47013;42.664;23.242;2022-10-16T13:34:48;94834.91;;;16.76;38.44
61128;BME280;47013;42.664;23.242;2022-10-16T13:37:31;94835.34;;;16.75;38.65
61128;BME280;47013;42.664;23.242;2022-10-16T13:40:18;94841.22;;;16.73;38.34
61128;BME280;47013;42.664;23.242;2022-10-16T13:42:44;94846.53;;;16.61;38.29
61128;BME280;47013;42.664;23.242;2022-10-16T13:45:24;94837.41;;;16.47;38.27
61128;BME280;47013;42.664;23.242;2022-10-16T13:48:04;94842.81;;;16.51;38.53
61128;BME280;47013;42.664;23.242;2022-10-16T13:50:30;94850.59;;;16.52;38.79
61128;BME280;47013;42.664;23.242;2022-10-16T13:53:13;94851.25;;;16.60;38.65
61128;BME280;47013;42.664;23.242;2022-10-16T13:55:39;94845.50;;;16.55;38.45
61128;BME280;47013;42.664;23.242;2022-10-16T13:58:08;94845.97;;;16.49;39.14
61128;BME280;47013;42.664;23.242;2022-10-16T14:00:37;94840.16;;;16.47;39.37
61128;BME280;47013;42.664;23.242;2022-10-16T14:03:14;94845.72;;;16.44;38.97
61128;BME280;47013;42.664;23.242;2022-10-16T14:05:55;94846.84;;;16.46;39.45
61128;BME280;47013;42.664;23.242;2022-10-16T14:08:23;94851.97;;;16.44;38.80
61128;BME280;47013;42.664;23.242;2022-10-16T14:10:51;94840.72;;;16.39;38.57
61128;BME280;47013;42.664;23.242;2022-10-16T14:13:20;94842.63;;;16.42;38.39
61128;BME280;47013;42.664;23.242;2022-10-16T14:15:51;94846.56;;;16.41;39.04
61128;BME280;47013;42.664;23.242;2022-10-16T14:18:22;94849.34;;;16.37;39.56
61128;BME280;47013;42.664;23.242;2022-10-16T14:20:49;94854.53;;;16.32;39.25
61128;BME280;47013;42.664;23.242;2022-10-16T14:23:28;94856.09;;;16.33;39.39
61128;BME280;47013;42.664;23.242;2022-10-16T14:25:53;94858.13;;;16.29;39.23
61128;BME280;47013;42.664;23.242;2022-10-16T14:28:21;94861.84;;;16.38;39.81
61128;BME280;47013;42.664;23.242;2022-10-16T14:30:58;94865.75;;;16.37;39.09
61128;BME280;47013;42.664;23.242;2022-10-16T14:33:32;94863.88;;;16.34;39.35
61128;BME280;47013;42.664;23.242;2022-10-16T14:36:05;94861.63;;;16.29;39.31
61128;BME280;47013;42.664;23.242;2022-10-16T14:38:36;94865.19;;;16.26;39.38
61128;BME280;47013;42.664;23.242;2022-10-16T14:41:03;94863.72;;;16.21;38.73
61128;BME280;47013;42.664;23.242;2022-10-16T14:45:57;94876.53;;;16.05;38.35
61128;BME280;47013;42.664;23.242;2022-10-16T14:48:23;94884.84;;;15.98;38.54
61128;BME280;47013;42.664;23.242;2022-10-16T14:50:49;94878.78;;;15.86;38.35
61128;BME280;47013;42.664;23.242;2022-10-16T14:53:15;94883.13;;;15.84;38.60
61128;BME280;47013;42.664;23.242;2022-10-16T14:55:41;94881.28;;;15.77;38.83
61128;BME280;47013;42.664;23.242;2022-10-16T14:58:34;94884.84;;;15.74;38.97
61128;BME280;47013;42.664;23.242;2022-10-16T15:01:00;94886.44;;;15.72;39.33